Time;durP1;ratioP1;P1;durP2;ratioP2;P2;SDS_P1;SDS_P2;PMS_P1;PMS_P2;Temp;Humidity;BMP_temperature;BMP_pressure;BME280_temperature;BME280_humidity;BME280_pressure;Samples;Min_cycle;Max_cycle;Signal;HPM_P1;HPM_P2
2023/10/24 00:00:07;;;;;;;7.30;4.28;;;24.20;52.80;;;;;;6199425;28;82747;-67
2023/10/24 00:03:14;;;;;;;6.93;4.75;;;24.20;52.90;;;;;;6177860;28;80668;-67
2023/10/24 00:06:15;;;;;;;7.65;4.45;;;24.20;52.90;;;;;;6178792;28;80574;-68
2023/10/24 00:09:16;;;;;;;6.80;4.53;;;24.10;52.90;;;;;;6177285;28;80539;-67
2023/10/24 00:12:16;;;;;;;8.50;4.97;;;24.20;52.80;;;;;;6171154;28;81289;-67
2023/10/24 00:15:17;;;;;;;7.35;4.80;;;24.20;52.70;;;;;;6177091;28;81942;-66
2023/10/24 00:18:17;;;;;;;8.48;4.47;;;24.20;52.60;;;;;;6183757;28;80356;-69
2023/10/24 00:21:18;;;;;;;7.45;4.75;;;24.20;52.60;;;;;;6217632;27;80812;-69
2023/10/24 00:24:18;;;;;;;10.77;4.90;;;24.20;52.40;;;;;;6221319;28;80436;-67
2023/10/24 00:27:19;;;;;;;8.98;5.40;;;24.20;52.60;;;;;;6202016;28;80128;-68
2023/10/24 00:30:19;;;;;;;8.38;5.03;;;24.20;52.50;;;;;;6212695;27;82784;-67
2023/10/24 00:33:20;;;;;;;7.20;4.32;;;24.30;52.50;;;;;;6215063;28;81884;-68
2023/10/24 00:36:20;;;;;;;6.65;4.55;;;24.30;52.50;;;;;;6220873;27;83002;-69
2023/10/24 00:39:21;;;;;;;7.97;4.95;;;24.20;52.40;;;;;;6208880;28;81679;-67
2023/10/24 00:42:22;;;;;;;9.18;4.53;;;24.20;52.70;;;;;;6194404;28;83801;-68
2023/10/24 00:45:22;;;;;;;8.30;4.82;;;24.20;52.60;;;;;;6197579;28;82314;-67
2023/10/24 00:48:23;;;;;;;8.60;4.97;;;24.20;52.60;;;;;;6225438;27;81766;-67
2023/10/24 00:51:23;;;;;;;6.03;4.05;;;24.20;52.90;;;;;;6222858;28;80552;-67
2023/10/24 00:54:24;;;;;;;8.95;5.28;;;24.20;52.50;;;;;;6214671;28;80691;-66
2023/10/24 00:57:24;;;;;;;9.05;5.07;;;24.20;52.40;;;;;;6219288;27;83586;-67
2023/10/24 01:00:26;;;;;;;9.77;5.00;;;24.20;52.40;;;;;;6217691;28;81431;-68
2023/10/24 01:03:26;;;;;;;8.65;4.70;;;24.20;52.30;;;;;;6176276;28;81235;-67
2023/10/24 01:06:26;;;;;;;5.75;3.88;;;24.20;52.60;;;;;;6180131;28;80747;-67
2023/10/24 01:09:28;;;;;;;8.15;4.85;;;24.20;53.10;;;;;;6177541;28;80965;-67
2023/10/24 01:12:28;;;;;;;7.97;4.97;;;24.20;53.10;;;;;;6174883;28;82307;-68
2023/10/24 01:15:29;;;;;;;6.47;4.57;;;24.20;52.60;;;;;;6154031;28;81422;-67
2023/10/24 01:18:30;;;;;;;6.70;4.38;;;24.20;52.70;;;;;;6185297;28;80328;-67
2023/10/24 01:21:30;;;;;;;7.00;4.65;;;24.20;52.80;;;;;;6201233;27;81278;-65
2023/10/24 01:24:32;;;;;;;6.63;5.32;;;24.20;52.70;;;;;;6219434;28;82603;-65
2023/10/24 01:27:33;;;;;;;5.82;4.35;;;24.20;52.40;;;;;;6192511;28;81587;-64
2023/10/24 01:30:33;;;;;;;10.63;5.18;;;24.20;52.70;;;;;;6196791;28;80581;-66
2023/10/24 01:33:34;;;;;;;7.60;5.32;;;24.20;52.20;;;;;;6208679;28;80383;-60
2023/10/24 01:36:34;;;;;;;7.20;4.93;;;24.10;51.80;;;;;;6179813;28;81850;-60
2023/10/24 01:39:35;;;;;;;8.52;4.40;;;24.10;52.40;;;;;;6192281;28;81824;-61
2023/10/24 01:42:35;;;;;;;7.75;4.97;;;24.10;52.10;;;;;;6194792;28;80628;-61
2023/10/24 01:45:36;;;;;;;9.13;4.88;;;24.00;51.90;;;;;;6162714;28;80230;-62
2023/10/24 01:48:36;;;;;;;7.25;5.07;;;24.10;51.70;;;;;;6175421;28;81038;-62
2023/10/24 01:51:38;;;;;;;6.95;4.82;;;24.00;51.90;;;;;;6172664;28;80338;-67
2023/10/24 01:54:38;;;;;;;7.82;5.10;;;24.00;51.70;;;;;;6180318;28;82975;-68
2023/10/24 01:57:39;;;;;;;7.15;4.80;;;24.00;51.70;;;;;;6185633;28;80469;-67
2023/10/24 02:00:39;;;;;;;6.93;4.95;;;24.00;51.90;;;;;;6186772;28;83111;-66
2023/10/24 02:03:40;;;;;;;8.52;6.30;;;24.00;51.90;;;;;;6214434;27;80528;-66
2023/10/24 02:06:40;;;;;;;7.82;5.22;;;24.00;52.00;;;;;;6199645;28;80764;-65
2023/10/24 02:09:41;;;;;;;7.72;5.30;;;24.00;51.80;;;;;;6220393;27;80593;-67
2023/10/24 02:12:41;;;;;;;7.60;5.00;;;24.00;51.80;;;;;;6219492;27;82215;-65
2023/10/24 02:15:42;;;;;;;8.43;5.43;;;24.00;51.70;;;;;;6208403;28;80992;-67
2023/10/24 02:18:42;;;;;;;7.68;5.25;;;24.00;51.70;;;;;;6184082;28;80444;-66
2023/10/24 02:21:43;;;;;;;7.43;5.95;;;24.00;51.60;;;;;;6161498;28;83260;-68
2023/10/24 02:24:43;;;;;;;7.10;4.63;;;24.00;51.50;;;;;;6202860;28;81398;-69
2023/10/24 02:27:44;;;;;;;7.03;4.50;;;24.00;51.90;;;;;;6211068;28;80661;-68
2023/10/24 02:30:44;;;;;;;8.25;5.28;;;24.00;52.10;;;;;;6208772;27;82421;-69
2023/10/24 02:33:45;;;;;;;6.40;5.00;;;24.00;52.10;;;;;;6194645;28;82590;-71
2023/10/24 02:36:45;;;;;;;7.93;5.05;;;24.00;51.90;;;;;;6180271;28;80359;-69
2023/10/24 02:39:46;;;;;;;8.80;5.03;;;24.00;51.80;;;;;;6168617;28;80566;-70
2023/10/24 02:42:46;;;;;;;6.88;4.97;;;24.00;51.80;;;;;;6172150;28;81262;-70
2023/10/24 02:45:47;;;;;;;6.53;4.78;;;24.00;52.10;;;;;;6201905;27;80559;-60
2023/10/24 02:48:47;;;;;;;7.28;5.32;;;24.00;51.50;;;;;;6168348;28;81325;-63
2023/10/24 02:51:48;;;;;;;7.53;5.00;;;24.10;52.10;;;;;;6176244;28;81166;-62
2023/10/24 02:54:49;;;;;;;7.70;5.28;;;24.10;51.80;;;;;;6173564;28;83543;-63
2023/10/24 02:57:49;;;;;;;7.15;5.57;;;24.00;51.80;;;;;;6194438;28;83391;-62
2023/10/24 03:00:50;;;;;;;7.70;4.95;;;24.10;51.60;;;;;;6179286;28;81375;-62
2023/10/24 03:03:51;;;;;;;7.60;5.25;;;24.10;51.40;;;;;;6181950;28;80572;-68
2023/10/24 03:06:52;;;;;;;7.57;5.30;;;24.00;51.60;;;;;;6176760;28;83700;-66
2023/10/24 03:09:52;;;;;;;6.45;4.68;;;24.00;51.70;;;;;;6176082;28;86023;-66
2023/10/24 03:12:52;;;;;;;7.70;5.28;;;24.00;51.60;;;;;;6183857;28;80343;-65
2023/10/24 03:15:53;;;;;;;6.47;5.10;;;24.00;51.40;;;;;;6177876;28;80918;-65
2023/10/24 03:18:53;;;;;;;7.43;5.13;;;24.00;51.40;;;;;;6195630;27;80382;-66
2023/10/24 03:21:54;;;;;;;6.10;4.53;;;24.00;52.10;;;;;;6201773;27;83357;-69
2023/10/24 03:24:54;;;;;;;6.55;4.82;;;24.00;51.30;;;;;;6191952;28;80456;-68
2023/10/24 03:27:55;;;;;;;6.72;4.80;;;24.00;51.50;;;;;;6169642;28;80392;-69
2023/10/24 03:30:55;;;;;;;5.72;4.63;;;24.00;51.70;;;;;;6190656;28;80306;-70
2023/10/24 03:33:56;;;;;;;6.07;4.45;;;24.10;51.60;;;;;;6168686;28;80693;-63
2023/10/24 03:36:56;;;;;;;6.30;4.60;;;24.10;51.80;;;;;;6176239;28;80771;-67
2023/10/24 03:39:57;;;;;;;6.20;4.50;;;24.10;51.70;;;;;;6169654;28;80876;-60
2023/10/24 03:42:57;;;;;;;14.45;4.80;;;24.10;51.50;;;;;;6162931;28;80597;-59
2023/10/24 03:45:58;;;;;;;7.90;4.65;;;24.10;51.10;;;;;;6205430;27;80758;-60
2023/10/24 03:48:58;;;;;;;5.97;4.15;;;24.10;51.10;;;;;;6192171;28;80717;-60
2023/10/24 03:51:59;;;;;;;5.28;4.22;;;24.10;51.00;;;;;;6185963;28;83150;-60
2023/10/24 03:54:59;;;;;;;5.47;4.50;;;24.10;51.30;;;;;;6166656;28;80803;-60
2023/10/24 03:58:00;;;;;;;7.00;4.68;;;24.10;50.70;;;;;;6156175;28;82028;-59
2023/10/24 04:01:00;;;;;;;7.32;4.80;;;24.10;51.30;;;;;;6175986;28;81563;-69
2023/10/24 04:04:01;;;;;;;6.32;5.07;;;24.20;51.20;;;;;;6193246;28;83667;-66
2023/10/24 04:07:04;;;;;;;6.25;4.80;;;24.20;50.90;;;;;;6184254;28;82386;-62
2023/10/24 04:10:04;;;;;;;7.68;5.28;;;24.20;50.90;;;;;;6172614;28;81064;-63
2023/10/24 04:13:05;;;;;;;6.70;4.82;;;24.30;51.00;;;;;;6203169;27;84988;-67
2023/10/24 04:16:05;;;;;;;7.47;5.25;;;24.30;51.10;;;;;;6219021;27;80556;-65
2023/10/24 04:19:06;;;;;;;8.70;5.57;;;24.30;51.50;;;;;;6224904;27;82582;-73
2023/10/24 04:22:06;;;;;;;7.65;5.10;;;24.30;51.70;;;;;;6215050;28;80562;-66
2023/10/24 04:25:07;;;;;;;6.78;4.97;;;24.40;51.70;;;;;;6179370;28;80748;-62
2023/10/24 04:28:07;;;;;;;8.82;4.70;;;24.40;51.90;;;;;;6175324;28;80634;-61
2023/10/24 04:31:08;;;;;;;12.25;5.53;;;24.40;52.00;;;;;;6180424;28;81481;-60
2023/10/24 04:34:08;;;;;;;7.10;4.40;;;24.40;51.70;;;;;;6182737;28;80767;-61
2023/10/24 04:37:10;;;;;;;7.80;4.57;;;24.40;51.60;;;;;;6170269;28;80613;-66
2023/10/24 04:40:10;;;;;;;15.20;5.20;;;24.40;51.80;;;;;;6189653;28;80483;-68
2023/10/24 04:43:11;;;;;;;12.15;5.47;;;24.40;51.80;;;;;;6197756;28;80532;-69
2023/10/24 04:46:11;;;;;;;13.50;5.13;;;24.40;52.30;;;;;;6180914;28;80555;-64
2023/10/24 04:49:12;;;;;;;10.93;5.80;;;24.40;52.50;;;;;;6193260;28;80926;-69
2023/10/24 04:52:12;;;;;;;9.38;5.15;;;24.40;52.20;;;;;;6193286;28;80322;-70
2023/10/24 04:55:13;;;;;;;8.45;4.88;;;24.40;52.00;;;;;;6172625;28;81946;-69
2023/10/24 04:58:13;;;;;;;10.48;5.05;;;24.40;51.50;;;;;;6184231;28;81721;-70
2023/10/24 05:01:14;;;;;;;15.43;5.97;;;24.30;51.20;;;;;;6202169;28;81499;-69
2023/10/24 05:04:14;;;;;;;7.72;5.70;;;24.30;51.20;;;;;;6185285;28;81403;-69
2023/10/24 05:07:15;;;;;;;10.27;6.40;;;24.30;51.10;;;;;;6169499;28;81231;-69
2023/10/24 05:10:15;;;;;;;11.50;6.43;;;24.20;51.10;;;;;;6203301;28;80759;-68
2023/10/24 05:13:16;;;;;;;11.48;6.55;;;24.20;50.80;;;;;;6204314;28;80325;-70
2023/10/24 05:16:16;;;;;;;9.10;6.38;;;24.10;50.60;;;;;;6216446;27;82568;-69
2023/10/24 05:19:17;;;;;;;12.48;7.05;;;24.10;50.50;;;;;;6210621;28;80388;-68
2023/10/24 05:22:17;;;;;;;12.48;7.43;;;24.10;50.60;;;;;;6201230;28;80401;-69
2023/10/24 05:25:18;;;;;;;8.65;5.97;;;24.00;50.40;;;;;;6185459;28;81008;-69
2023/10/24 05:28:18;;;;;;;9.73;6.55;;;24.00;50.40;;;;;;6195474;28;80602;-69
2023/10/24 05:31:21;;;;;;;10.38;6.00;;;24.00;50.30;;;;;;6178503;28;80511;-70
2023/10/24 05:34:21;;;;;;;11.13;6.50;;;23.90;50.20;;;;;;6183373;28;80424;-69
2023/10/24 05:37:22;;;;;;;9.77;6.13;;;23.90;50.20;;;;;;6199281;28;80393;-69
2023/10/24 05:40:23;;;;;;;9.73;6.28;;;23.90;50.20;;;;;;6167880;28;81435;-70
2023/10/24 05:43:23;;;;;;;10.02;6.43;;;23.90;50.10;;;;;;6154691;28;81063;-70
2023/10/24 05:46:24;;;;;;;8.85;6.65;;;23.90;50.00;;;;;;6185827;28;80572;-71
2023/10/24 05:49:24;;;;;;;8.95;6.57;;;23.90;49.90;;;;;;6188719;28;80370;-66
2023/10/24 05:52:25;;;;;;;9.20;6.20;;;23.90;49.80;;;;;;6151919;28;81471;-65
2023/10/24 05:55:25;;;;;;;10.20;6.50;;;23.90;49.80;;;;;;6153960;28;81111;-65
2023/10/24 05:58:26;;;;;;;8.88;6.65;;;23.80;49.70;;;;;;6174306;28;80284;-66
2023/10/24 06:01:26;;;;;;;10.10;6.75;;;23.80;49.70;;;;;;6195381;28;80642;-65
2023/10/24 06:04:27;;;;;;;10.32;6.35;;;23.80;49.70;;;;;;6198947;28;81409;-68
2023/10/24 06:07:27;;;;;;;8.05;6.03;;;23.80;49.70;;;;;;6197392;28;81495;-61
2023/10/24 06:10:28;;;;;;;11.85;6.80;;;23.80;49.60;;;;;;6196995;28;80201;-61
2023/10/24 06:13:28;;;;;;;11.25;6.38;;;23.80;49.70;;;;;;6198503;28;80938;-62
2023/10/24 06:16:29;;;;;;;9.63;6.82;;;23.80;49.60;;;;;;6182291;28;80311;-61
2023/10/24 06:19:29;;;;;;;10.32;6.72;;;23.80;49.60;;;;;;6199836;28;80372;-60
2023/10/24 06:22:31;;;;;;;9.50;6.70;;;23.80;49.60;;;;;;6177533;28;81108;-61
2023/10/24 06:25:31;;;;;;;9.23;6.32;;;23.80;49.50;;;;;;6151731;28;83550;-59
2023/10/24 06:28:32;;;;;;;9.57;6.38;;;23.70;49.50;;;;;;6153475;28;81256;-58
2023/10/24 06:31:32;;;;;;;10.02;6.25;;;23.70;49.50;;;;;;6175951;28;83230;-59
2023/10/24 06:34:33;;;;;;;8.68;6.38;;;23.70;49.40;;;;;;6171691;28;80430;-59
2023/10/24 06:37:34;;;;;;;8.07;5.85;;;23.70;49.40;;;;;;6186853;28;82125;-59
2023/10/24 06:40:34;;;;;;;9.05;6.60;;;23.70;49.30;;;;;;6157383;28;80981;-59
2023/10/24 06:43:35;;;;;;;10.98;6.50;;;23.70;49.40;;;;;;6154602;28;80900;-66
2023/10/24 06:46:35;;;;;;;10.32;6.40;;;23.70;49.40;;;;;;6163932;28;82530;-66
2023/10/24 06:49:36;;;;;;;7.47;6.43;;;23.70;49.40;;;;;;6154556;28;81131;-67
2023/10/24 06:52:36;;;;;;;9.15;7.20;;;23.70;49.40;;;;;;6161652;28;80696;-66
2023/10/24 06:55:37;;;;;;;8.55;6.38;;;23.70;49.40;;;;;;6199374;28;80840;-65
2023/10/24 06:58:37;;;;;;;8.40;6.25;;;23.70;49.50;;;;;;6195371;28;80703;-67
2023/10/24 07:01:38;;;;;;;9.25;6.07;;;23.70;49.40;;;;;;6199904;28;80576;-67
2023/10/24 07:04:39;;;;;;;8.70;6.53;;;23.70;49.30;;;;;;6163040;28;80394;-70
2023/10/24 07:07:39;;;;;;;7.05;5.78;;;23.60;49.40;;;;;;6189962;28;80567;-69
2023/10/24 07:10:40;;;;;;;10.38;6.00;;;23.60;49.40;;;;;;6192484;28;80331;-71
2023/10/24 07:13:40;;;;;;;8.27;5.68;;;23.70;49.40;;;;;;6182088;28;80387;-70
2023/10/24 07:16:41;;;;;;;10.02;6.05;;;23.60;49.30;;;;;;6186165;28;81247;-69
2023/10/24 07:19:41;;;;;;;7.72;5.72;;;23.60;49.30;;;;;;6179882;28;81122;-70
2023/10/24 07:22:42;;;;;;;7.43;6.10;;;23.60;49.30;;;;;;6206449;28;80432;-61
2023/10/24 07:25:42;;;;;;;8.32;6.22;;;23.60;49.30;;;;;;6166164;28;80946;-62
2023/10/24 07:28:43;;;;;;;7.63;5.80;;;23.60;49.30;;;;;;6176682;28;81087;-61
2023/10/24 07:31:43;;;;;;;8.60;5.88;;;23.60;49.30;;;;;;6225811;27;80783;-62
2023/10/24 07:34:44;;;;;;;7.00;5.18;;;23.60;49.40;;;;;;6212501;27;80531;-61
2023/10/24 07:37:44;;;;;;;9.13;5.75;;;23.60;49.40;;;;;;6167981;28;81593;-62
2023/10/24 07:40:45;;;;;;;11.10;6.25;;;23.60;49.40;;;;;;6179012;28;81162;-66
2023/10/24 07:43:45;;;;;;;8.27;5.85;;;23.60;49.50;;;;;;6181779;28;80570;-66
2023/10/24 07:46:46;;;;;;;8.02;5.63;;;23.60;49.40;;;;;;6188609;28;80307;-67
2023/10/24 07:49:46;;;;;;;8.38;5.43;;;23.60;49.40;;;;;;6217463;28;80353;-67
2023/10/24 07:52:47;;;;;;;7.75;5.78;;;23.60;49.40;;;;;;6213666;28;80541;-65
2023/10/24 07:55:47;;;;;;;8.80;5.40;;;23.60;49.50;;;;;;6221875;27;81487;-66
2023/10/24 07:58:48;;;;;;;7.32;5.68;;;23.60;49.50;;;;;;6215938;27;81018;-66
2023/10/24 08:01:48;;;;;;;7.60;5.60;;;23.60;49.60;;;;;;6188268;28;81314;-66
2023/10/24 08:04:49;;;;;;;8.30;5.35;;;23.60;49.80;;;;;;6178057;28;80579;-65
2023/10/24 08:07:49;;;;;;;7.88;5.40;;;23.60;49.70;;;;;;6178105;28;80757;-68
2023/10/24 08:10:50;;;;;;;8.18;5.60;;;23.60;49.70;;;;;;6177698;28;80392;-67
2023/10/24 08:13:50;;;;;;;6.70;5.43;;;23.60;49.70;;;;;;6193378;28;80922;-65
2023/10/24 08:16:51;;;;;;;7.70;5.32;;;23.60;49.50;;;;;;6203286;28;80254;-69
2023/10/24 08:19:51;;;;;;;6.55;5.30;;;23.60;49.60;;;;;;6173486;28;80415;-70
2023/10/24 08:22:52;;;;;;;8.10;5.32;;;23.60;49.60;;;;;;6189942;28;80574;-70
2023/10/24 08:25:52;;;;;;;7.72;5.47;;;23.60;49.60;;;;;;6189902;28;81330;-70
2023/10/24 08:28:53;;;;;;;7.70;5.18;;;23.60;49.60;;;;;;6193981;28;81146;-71
2023/10/24 08:31:53;;;;;;;7.57;5.50;;;23.60;49.70;;;;;;6201729;28;80564;-70
2023/10/24 08:34:54;;;;;;;7.68;5.40;;;23.60;49.60;;;;;;6202186;28;82302;-60
2023/10/24 08:37:54;;;;;;;8.73;5.93;;;23.60;49.70;;;;;;6207750;28;82241;-61
2023/10/24 08:40:55;;;;;;;8.93;5.75;;;23.60;49.70;;;;;;6198236;28;80246;-59
2023/10/24 08:43:55;;;;;;;7.05;5.15;;;23.60;49.80;;;;;;6214312;28;80989;-59
2023/10/24 08:46:56;;;;;;;7.72;5.95;;;23.60;49.90;;;;;;6216360;27;81048;-59
2023/10/24 08:49:56;;;;;;;7.28;5.20;;;23.70;50.20;;;;;;6224595;27;81380;-59
2023/10/24 08:52:57;;;;;;;6.72;5.57;;;23.80;49.90;;;;;;6225569;27;81392;-62
2023/10/24 08:55:57;;;;;;;6.85;5.25;;;23.80;50.20;;;;;;6222101;27;81645;-63
2023/10/24 08:58:58;;;;;;;7.30;5.50;;;23.80;50.10;;;;;;6224808;27;81247;-62
2023/10/24 09:01:58;;;;;;;8.77;5.25;;;23.90;50.10;;;;;;6224009;27;80424;-63
2023/10/24 09:04:59;;;;;;;7.15;5.25;;;23.90;50.20;;;;;;6223548;27;80866;-63
2023/10/24 09:07:59;;;;;;;6.68;5.25;;;23.90;50.10;;;;;;6226647;27;81354;-62
2023/10/24 09:11:00;;;;;;;6.38;4.97;;;24.00;50.30;;;;;;6209040;28;80221;-66
2023/10/24 09:14:00;;;;;;;8.02;5.38;;;24.00;50.30;;;;;;6220024;27;80374;-66
2023/10/24 09:17:03;;;;;;;7.18;5.40;;;24.00;50.30;;;;;;6221575;28;81688;-66
2023/10/24 09:20:03;;;;;;;6.90;5.22;;;24.00;50.30;;;;;;6224498;28;83689;-67
2023/10/24 09:23:04;;;;;;;9.10;5.60;;;24.00;50.20;;;;;;6220363;27;80741;-67
2023/10/24 09:26:05;;;;;;;9.88;5.43;;;24.10;50.20;;;;;;6182547;28;82864;-65
2023/10/24 09:29:05;;;;;;;10.45;6.32;;;24.10;50.20;;;;;;6167079;28;80759;-66
2023/10/24 09:32:05;;;;;;;7.38;5.95;;;24.10;50.20;;;;;;6175978;28;81664;-67
2023/10/24 09:35:06;;;;;;;7.57;5.55;;;24.20;50.20;;;;;;6171493;28;80579;-66
2023/10/24 09:38:07;;;;;;;8.18;5.38;;;24.20;50.20;;;;;;6175726;28;80614;-67
2023/10/24 09:41:08;;;;;;;9.52;6.65;;;24.20;50.10;;;;;;6216893;28;87419;-65
2023/10/24 09:44:09;;;;;;;8.43;5.10;;;24.30;50.20;;;;;;6197291;27;81323;-67
2023/10/24 09:47:09;;;;;;;7.03;5.30;;;24.30;50.10;;;;;;6214709;28;81008;-67
2023/10/24 09:50:10;;;;;;;7.78;5.45;;;24.30;50.10;;;;;;6159744;28;80833;-67
2023/10/24 09:53:10;;;;;;;8.48;5.60;;;24.40;50.10;;;;;;6174975;28;81226;-68
2023/10/24 09:56:11;;;;;;;7.20;5.47;;;24.40;50.10;;;;;;6192835;28;80610;-69
2023/10/24 09:59:11;;;;;;;7.30;5.78;;;24.50;50.10;;;;;;6200556;28;80899;-66
2023/10/24 10:02:12;;;;;;;7.53;5.03;;;24.60;50.10;;;;;;6200075;28;82761;-68
2023/10/24 10:05:12;;;;;;;5.75;4.90;;;24.60;50.10;;;;;;6199797;28;80556;-67
2023/10/24 10:08:13;;;;;;;10.55;6.18;;;24.60;50.20;;;;;;6195875;28;80368;-63
2023/10/24 10:11:13;;;;;;;8.60;5.25;;;24.60;50.20;;;;;;6219693;28;80598;-62
2023/10/24 10:14:14;;;;;;;6.28;4.80;;;24.60;50.30;;;;;;6224356;27;81641;-62
2023/10/24 10:17:15;;;;;;;8.38;5.45;;;24.60;50.30;;;;;;6215734;27;80835;-63
2023/10/24 10:20:15;;;;;;;6.88;5.43;;;24.70;50.40;;;;;;6220118;27;81060;-63
2023/10/24 10:23:16;;;;;;;8.88;6.10;;;24.70;50.40;;;;;;6220291;28;83069;-63
2023/10/24 10:26:16;;;;;;;6.68;4.80;;;24.70;50.30;;;;;;6209143;27;82053;-63
2023/10/24 10:29:17;;;;;;;8.10;5.13;;;24.70;50.60;;;;;;6215890;27;80711;-63
2023/10/24 10:32:17;;;;;;;6.43;5.05;;;24.70;50.60;;;;;;6224861;27;81275;-63
2023/10/24 10:35:18;;;;;;;6.50;4.80;;;24.70;50.60;;;;;;6199335;27;80988;-62
2023/10/24 10:38:19;;;;;;;8.15;5.25;;;24.70;50.80;;;;;;6173015;28;81391;-64
2023/10/24 10:41:19;;;;;;;9.30;5.40;;;24.70;50.80;;;;;;6176131;28;81149;-62
2023/10/24 10:44:20;;;;;;;7.63;4.97;;;24.70;51.00;;;;;;6179738;28;80729;-60
2023/10/24 10:47:21;;;;;;;8.18;5.15;;;24.60;51.10;;;;;;6202145;28;80364;-59
2023/10/24 10:50:21;;;;;;;8.13;6.45;;;24.70;51.30;;;;;;6177417;28;82474;-60
2023/10/24 10:53:22;;;;;;;9.75;5.65;;;24.70;51.30;;;;;;6221221;28;80882;-58
2023/10/24 10:56:23;;;;;;;7.05;5.18;;;24.70;51.30;;;;;;6227327;27;80782;-59
2023/10/24 10:59:24;;;;;;;6.82;5.25;;;24.70;51.30;;;;;;6228249;27;82103;-59
2023/10/24 11:02:24;;;;;;;9.45;5.95;;;24.80;51.30;;;;;;6227369;27;81849;-59
2023/10/24 11:05:25;;;;;;;7.38;5.07;;;24.90;51.00;;;;;;6226740;27;80490;-59
2023/10/24 11:08:26;;;;;;;6.88;5.15;;;25.00;50.80;;;;;;6224545;27;80255;-59
2023/10/24 11:11:26;;;;;;;7.53;5.13;;;25.10;50.60;;;;;;6227860;27;80953;-59
2023/10/24 11:14:27;;;;;;;6.80;5.10;;;25.20;50.50;;;;;;6229280;27;81304;-61
2023/10/24 11:17:27;;;;;;;7.25;5.07;;;25.30;50.40;;;;;;6227393;27;83762;-61
2023/10/24 11:20:28;;;;;;;9.75;5.30;;;25.30;50.30;;;;;;6225891;27;80383;-69
2023/10/24 11:23:29;;;;;;;6.07;4.63;;;25.40;50.40;;;;;;6223728;28;80401;-69
2023/10/24 11:26:29;;;;;;;5.70;4.55;;;25.50;50.40;;;;;;6228286;27;80575;-70
2023/10/24 11:29:30;;;;;;;6.35;4.57;;;25.50;50.30;;;;;;6219244;27;82214;-70
2023/10/24 11:32:30;;;;;;;6.60;4.38;;;25.60;50.20;;;;;;6212514;27;82216;-71
2023/10/24 11:35:31;;;;;;;5.50;4.10;;;25.60;50.20;;;;;;6207595;28;80830;-71
2023/10/24 11:38:31;;;;;;;5.22;4.22;;;25.60;50.20;;;;;;6214138;28;80887;-70
2023/10/24 11:41:32;;;;;;;4.60;3.83;;;25.70;50.20;;;;;;6222654;28;80983;-72
2023/10/24 11:44:32;;;;;;;6.50;4.82;;;25.70;50.20;;;;;;6201120;28;87563;-71
2023/10/24 11:47:33;;;;;;;8.43;4.78;;;25.70;50.10;;;;;;6227648;27;81196;-71
2023/10/24 11:50:33;;;;;;;5.00;4.10;;;25.70;50.10;;;;;;6224902;28;83340;-71
2023/10/24 11:53:34;;;;;;;7.00;4.85;;;25.80;50.30;;;;;;6228222;27;80633;-70
2023/10/24 11:56:35;;;;;;;5.53;4.10;;;25.80;50.10;;;;;;6215284;27;81087;-67
2023/10/24 11:59:35;;;;;;;9.00;4.03;;;25.90;50.10;;;;;;6223568;27;80247;-70
2023/10/24 12:02:36;;;;;;;4.65;4.00;;;25.90;50.30;;;;;;6218068;27;80357;-70
2023/10/24 12:05:36;;;;;;;5.47;4.18;;;25.90;50.30;;;;;;6216912;28;80456;-69
2023/10/24 12:08:37;;;;;;;5.82;4.22;;;25.80;50.20;;;;;;6208697;27;81005;-71
2023/10/24 12:11:37;;;;;;;4.68;3.90;;;25.80;50.40;;;;;;6217641;28;80451;-68
2023/10/24 12:14:38;;;;;;;5.85;3.97;;;25.80;50.40;;;;;;6213468;27;80644;-70
2023/10/24 12:17:38;;;;;;;6.22;4.35;;;25.80;50.40;;;;;;6216024;28;80397;-71
2023/10/24 12:20:39;;;;;;;6.68;4.50;;;25.80;50.50;;;;;;6213567;28;80903;-70
2023/10/24 12:23:39;;;;;;;5.72;4.03;;;25.80;50.50;;;;;;6218799;27;81418;-70
2023/10/24 12:26:40;;;;;;;7.63;4.13;;;25.70;50.50;;;;;;6222223;28;81227;-70
2023/10/24 12:29:40;;;;;;;6.40;3.90;;;25.70;50.60;;;;;;6218892;27;80041;-71
2023/10/24 12:32:41;;;;;;;4.40;3.70;;;25.70;50.70;;;;;;6221199;27;80162;-69
2023/10/24 12:35:41;;;;;;;4.28;3.88;;;25.70;50.90;;;;;;6169282;28;80334;-68
2023/10/24 12:38:42;;;;;;;5.43;4.35;;;25.50;51.00;;;;;;6196989;28;80915;-67
2023/10/24 12:41:42;;;;;;;8.00;4.40;;;25.40;51.20;;;;;;6225307;28;80901;-69
2023/10/24 12:44:43;;;;;;;4.97;3.97;;;25.30;51.20;;;;;;6207507;28;80932;-69
2023/10/24 12:47:43;;;;;;;5.35;3.97;;;25.30;51.40;;;;;;6201790;28;80504;-64
2023/10/24 12:50:44;;;;;;;6.88;4.45;;;25.20;51.50;;;;;;6224522;27;80363;-67
2023/10/24 12:53:44;;;;;;;5.68;4.28;;;25.10;51.80;;;;;;6166869;28;80860;-64
2023/10/24 12:56:45;;;;;;;5.35;4.40;;;25.10;51.60;;;;;;6178335;28;80904;-66
2023/10/24 12:59:46;;;;;;;6.30;4.32;;;25.10;51.70;;;;;;6158166;28;80374;-65
2023/10/24 13:02:46;;;;;;;8.60;4.00;;;25.00;52.00;;;;;;6179552;28;80373;-65
2023/10/24 13:05:47;;;;;;;7.88;3.92;;;24.90;52.00;;;;;;6196500;28;81037;-68
2023/10/24 13:08:47;;;;;;;9.27;4.25;;;24.90;52.30;;;;;;6152033;28;83408;-65
2023/10/24 13:11:47;;;;;;;5.47;3.88;;;24.80;52.30;;;;;;6176583;28;80333;-63
2023/10/24 13:14:48;;;;;;;29.30;4.82;;;24.90;54.00;;;;;;6153647;28;80926;-69
2023/10/24 13:17:48;;;;;;;10.95;4.90;;;24.90;53.00;;;;;;6179224;28;80562;-69
2023/10/24 13:20:49;;;;;;;8.27;4.65;;;24.80;53.40;;;;;;6187753;28;82239;-69
2023/10/24 13:23:49;;;;;;;10.43;4.28;;;24.70;53.20;;;;;;6165882;28;81294;-68
2023/10/24 13:26:50;;;;;;;9.07;4.82;;;24.70;53.40;;;;;;6175003;28;82594;-68
2023/10/24 13:29:50;;;;;;;10.55;4.50;;;24.60;53.50;;;;;;6170399;28;80290;-68
2023/10/24 13:32:51;;;;;;;8.40;4.28;;;24.60;53.60;;;;;;6198964;28;81992;-68
2023/10/24 13:35:51;;;;;;;7.65;4.60;;;24.60;53.80;;;;;;6176346;28;80791;-69
2023/10/24 13:38:52;;;;;;;12.70;5.30;;;24.60;53.90;;;;;;6204237;28;81024;-69
2023/10/24 13:41:52;;;;;;;11.10;5.07;;;24.60;54.00;;;;;;6213253;28;80270;-69
2023/10/24 13:44:53;;;;;;;6.85;4.57;;;24.50;54.10;;;;;;6205148;27;80905;-68
2023/10/24 13:47:53;;;;;;;10.68;4.93;;;24.50;54.20;;;;;;6208446;28;80772;-72
2023/10/24 13:50:54;;;;;;;10.90;5.18;;;24.40;55.00;;;;;;6177563;28;80722;-71
2023/10/24 13:53:54;;;;;;;10.15;4.30;;;24.40;55.10;;;;;;6209988;28;80306;-68
2023/10/24 13:56:55;;;;;;;13.00;5.25;;;24.30;56.10;;;;;;6203751;27;80909;-71
2023/10/24 13:59:56;;;;;;;21.15;5.57;;;24.30;56.80;;;;;;6207231;28;81309;-66
2023/10/24 14:02:56;;;;;;;21.65;4.70;;;24.20;56.50;;;;;;6183889;28;80426;-65
2023/10/24 14:05:57;;;;;;;12.35;4.43;;;24.20;56.90;;;;;;6196028;28;80418;-62
2023/10/24 14:08:57;;;;;;;14.02;4.78;;;24.20;56.80;;;;;;6191979;28;84771;-63
2023/10/24 14:11:58;;;;;;;10.57;5.15;;;24.20;56.60;;;;;;6174420;28;80408;-63
2023/10/24 14:14:58;;;;;;;11.02;4.63;;;24.20;56.80;;;;;;6197934;28;80831;-63
2023/10/24 14:17:59;;;;;;;7.40;4.53;;;24.20;57.10;;;;;;6195550;28;83606;-64
2023/10/24 14:21:00;;;;;;;11.15;5.05;;;24.30;57.10;;;;;;6162711;28;80898;-62
2023/10/24 14:24:00;;;;;;;10.90;5.15;;;24.30;57.20;;;;;;6175150;28;80287;-60
2023/10/24 14:27:01;;;;;;;9.88;5.75;;;24.30;57.50;;;;;;6207368;27;81696;-61
2023/10/24 14:30:01;;;;;;;7.53;4.47;;;24.20;57.90;;;;;;6221562;28;80334;-61
2023/10/24 14:33:04;;;;;;;9.70;4.68;;;24.20;58.10;;;;;;6206564;27;80784;-61
2023/10/24 14:36:04;;;;;;;9.55;4.82;;;24.10;58.30;;;;;;6210898;28;80739;-59
2023/10/24 14:39:06;;;;;;;10.15;4.80;;;24.10;58.60;;;;;;6180609;28;85209;-58
2023/10/24 14:42:06;;;;;;;8.73;5.20;;;24.10;58.40;;;;;;6191242;28;81361;-59
2023/10/24 14:45:07;;;;;;;8.85;4.90;;;24.00;58.50;;;;;;6154460;28;84062;-60
2023/10/24 14:48:07;;;;;;;9.80;4.50;;;24.00;58.80;;;;;;6185547;28;83441;-61
2023/10/24 14:51:08;;;;;;;8.35;4.35;;;24.10;59.20;;;;;;6153661;28;81031;-60
2023/10/24 14:54:08;;;;;;;14.10;5.10;;;24.30;77.00;;;;;;6157907;28;80833;-61
2023/10/24 14:57:10;;;;;;;12.73;5.00;;;24.40;67.90;;;;;;6158659;28;81685;-61
2023/10/24 15:00:11;;;;;;;9.05;4.20;;;24.30;72.30;;;;;;6159739;28;81055;-61
2023/10/24 15:03:11;;;;;;;10.40;5.05;;;24.30;66.90;;;;;;6181840;28;82815;-61
2023/10/24 15:06:12;;;;;;;6.55;4.35;;;24.30;66.90;;;;;;6161260;28;80395;-61
2023/10/24 15:09:14;;;;;;;6.45;4.22;;;24.30;66.50;;;;;;6184027;28;81040;-61
2023/10/24 15:12:15;;;;;;;8.00;5.63;;;24.30;65.80;;;;;;6160343;28;81165;-63
2023/10/24 15:15:15;;;;;;;11.57;5.13;;;24.30;65.90;;;;;;6170404;28;80996;-61
2023/10/24 15:18:16;;;;;;;15.10;4.47;;;24.30;66.20;;;;;;6151934;28;80625;-69
2023/10/24 15:21:16;;;;;;;8.75;5.85;;;24.30;66.90;;;;;;6200549;28;81690;-72
2023/10/24 15:24:19;;;;;;;7.22;4.65;;;24.30;65.60;;;;;;6207544;28;83069;-69
2023/10/24 15:27:20;;;;;;;16.77;5.00;;;24.30;65.60;;;;;;6194848;27;82165;-74
2023/10/24 15:30:21;;;;;;;9.85;5.03;;;24.30;66.10;;;;;;6209496;27;81157;-72
2023/10/24 15:33:21;;;;;;;10.25;5.07;;;24.30;65.80;;;;;;6203384;27;80472;-75
2023/10/24 15:36:22;;;;;;;11.30;5.00;;;24.30;65.60;;;;;;6203550;28;82763;-69